Terminal Aerodrome Forecast
Issued by NWS

Home | Current Version | Previous Version | Text Only | Print | Product List | Glossary On
Versions: 1 2 3 4 5 6 7 8 9 10 11 12 13 14 15 16 17 18 19 20 21 22 23 24 25 26 27 28 29 30 31 32 33 34 35 36 37 38 39 40 41 42
000
FTUS42 KGSP 020600 AAA
TAFHKY
TAF AMD
KHKY 020633Z 0207/0306 03003KT 3SM BR OVC005
     FM021500 05004KT P6SM OVC013
     FM021700 05003KT P6SM OVC021
     FM021900 00000KT P6SM VCTS OVC035CB
     FM030000 00000KT P6SM OVC070=

USA.gov is the U.S. government's official web portal to all federal, state and local government web resources and services.